createdAt,value
2023-01-07T00:02:20.323Z,10.20
2023-01-07T00:04:48.364Z,10.20
2023-01-07T00:07:16.438Z,10.20
2023-01-07T00:09:44.518Z,10.20
2023-01-07T00:12:12.534Z,10.20
2023-01-07T00:14:40.466Z,10.10
2023-01-07T00:17:09.839Z,10.20
2023-01-07T00:19:37.770Z,10.10
2023-01-07T00:22:05.843Z,10.10
2023-01-07T00:24:33.832Z,10.10
2023-01-07T00:27:02.176Z,10.10
2023-01-07T00:29:33.111Z,10.10
2023-01-07T00:32:01.394Z,10.10
2023-01-07T00:34:31.077Z,10.20
2023-01-07T00:37:19.106Z,10.10
2023-01-07T00:39:47.079Z,10.10
2023-01-07T00:42:32.752Z,10.10
2023-01-07T00:45:00.642Z,10.10
2023-01-07T00:47:28.919Z,10.20
2023-01-07T00:49:58.410Z,10.20
2023-01-07T00:52:28.572Z,10.20
2023-01-07T00:54:56.747Z,10.20
2023-01-07T00:57:24.735Z,10.20
2023-01-07T00:59:52.809Z,10.20
2023-01-07T01:02:21.140Z,10.20
2023-01-07T01:04:49.163Z,10.20
2023-01-07T01:07:18.584Z,10.20
2023-01-07T01:09:46.515Z,10.20
2023-01-07T01:12:14.436Z,10.30
2023-01-07T01:14:42.466Z,10.20
2023-01-07T01:17:10.427Z,10.20
2023-01-07T01:19:38.395Z,10.20
2023-01-07T01:22:06.621Z,10.20
2023-01-07T01:24:35.988Z,10.20
2023-01-07T01:27:03.936Z,10.20
2023-01-07T01:29:31.863Z,10.20
2023-01-07T01:32:01.123Z,10.30
2023-01-07T01:34:32.321Z,10.30
2023-01-07T01:37:00.496Z,10.30
2023-01-07T01:39:28.575Z,10.30
2023-01-07T01:41:58.295Z,10.20
2023-01-07T01:44:49.793Z,10.20
2023-01-07T01:47:23.600Z,10.20
2023-01-07T01:50:01.148Z,10.20
2023-01-07T01:52:34.490Z,10.10
2023-01-07T01:55:05.838Z,10.10
2023-01-07T01:57:38.194Z,10.10
2023-01-07T02:00:08.586Z,10.20
2023-01-07T02:02:41.598Z,10.20
2023-01-07T02:05:17.990Z,10.20
2023-01-07T02:07:46.260Z,10.20
2023-01-07T02:10:18.361Z,10.20
2023-01-07T02:13:02.475Z,10.20
2023-01-07T02:15:37.994Z,10.20
2023-01-07T02:18:16.180Z,10.20
2023-01-07T02:21:09.129Z,10.20
2023-01-07T02:24:25.939Z,10.20
2023-01-07T02:27:21.813Z,10.20
2023-01-07T02:30:30.290Z,10.20
2023-01-07T02:33:28.339Z,10.20
2023-01-07T02:36:19.433Z,10.20
2023-01-07T02:39:14.672Z,10.20
2023-01-07T02:41:49.799Z,10.30
2023-01-07T02:44:26.521Z,10.30
2023-01-07T02:47:02.410Z,10.30
2023-01-07T02:49:31.789Z,10.20
2023-01-07T02:52:17.378Z,10.20
2023-01-07T02:54:46.502Z,10.20
2023-01-07T02:57:51.221Z,10.10
2023-01-07T03:00:34.452Z,10.10
2023-01-07T03:03:21.919Z,10.10
2023-01-07T03:06:04.708Z,10.10
2023-01-07T03:08:45.543Z,10.10
2023-01-07T03:11:14.672Z,10.10
2023-01-07T03:13:48.777Z,10.10
2023-01-07T03:16:21.399Z,10.10
2023-01-07T03:18:55.908Z,10.10
2023-01-07T03:21:28.115Z,10.20
2023-01-07T03:23:58.078Z,10.10
2023-01-07T03:26:32.444Z,10.10
2023-01-07T03:29:02.765Z,10.10
2023-01-07T03:31:31.969Z,10.10
2023-01-07T03:34:04.215Z,10.10
2023-01-07T03:36:38.816Z,10.00
2023-01-07T03:39:08.452Z,10.10
2023-01-07T03:41:53.800Z,10.10
2023-01-07T03:44:21.686Z,10.10
2023-01-07T03:46:50.046Z,10.20
2023-01-07T03:49:17.943Z,10.10
2023-01-07T03:51:49.414Z,10.00
2023-01-07T03:54:17.534Z,10.00
2023-01-07T03:56:45.502Z,9.90
2023-01-07T03:59:13.416Z,9.90
2023-01-07T04:01:41.563Z,9.90
2023-01-07T04:04:09.624Z,9.90
2023-01-07T04:06:37.598Z,10.00
2023-01-07T04:09:06.912Z,10.00
2023-01-07T04:11:34.896Z,10.00
2023-01-07T04:14:02.766Z,10.00
2023-01-07T04:16:30.772Z,10.00
2023-01-07T04:18:58.721Z,10.00
2023-01-07T04:21:26.616Z,9.90
2023-01-07T04:23:55.185Z,9.90
2023-01-07T04:26:24.852Z,9.90
2023-01-07T04:28:52.803Z,10.00
2023-01-07T04:31:20.813Z,9.90
2023-01-07T04:33:48.708Z,9.90
2023-01-07T04:36:16.759Z,9.90
2023-01-07T04:38:44.693Z,9.80
2023-01-07T04:41:12.598Z,9.80
2023-01-07T04:43:42.870Z,9.80
2023-01-07T04:46:10.815Z,9.80
2023-01-07T04:48:38.842Z,9.80
2023-01-07T04:51:07.069Z,9.80
2023-01-07T04:53:34.869Z,9.80
2023-01-07T04:56:02.793Z,9.70
2023-01-07T04:58:30.695Z,9.80
2023-01-07T05:01:03.275Z,9.80
2023-01-07T05:03:31.345Z,9.80
2023-01-07T05:05:59.254Z,9.90
2023-01-07T05:08:27.485Z,9.90
2023-01-07T05:10:55.426Z,9.70
2023-01-07T05:13:25.424Z,9.80
2023-01-07T05:15:53.282Z,9.70
2023-01-07T05:18:22.468Z,9.80
2023-01-07T05:20:50.355Z,9.80
2023-01-07T05:23:18.204Z,9.70
2023-01-07T05:25:46.080Z,9.70
2023-01-07T05:28:13.951Z,9.70
2023-01-07T05:30:41.872Z,9.60
2023-01-07T05:33:09.750Z,9.60
2023-01-07T05:35:38.987Z,9.60
2023-01-07T05:38:06.809Z,9.60
2023-01-07T05:40:34.778Z,9.60
2023-01-07T05:43:02.614Z,9.70
2023-01-07T05:45:30.531Z,9.70
2023-01-07T05:47:58.409Z,9.60
2023-01-07T05:50:27.161Z,9.60
2023-01-07T05:52:56.352Z,9.60
2023-01-07T05:55:24.221Z,9.60
2023-01-07T05:57:52.114Z,9.60
2023-01-07T06:00:20.285Z,9.60
2023-01-07T06:02:48.184Z,9.60
2023-01-07T06:05:16.190Z,9.60
2023-01-07T06:07:44.009Z,9.60
2023-01-07T06:10:13.249Z,9.60
2023-01-07T06:12:41.131Z,9.60
2023-01-07T06:15:09.936Z,9.50
2023-01-07T06:17:38.076Z,9.50
2023-01-07T06:20:09.292Z,9.60
2023-01-07T06:22:37.406Z,9.60
2023-01-07T06:25:05.883Z,9.50
2023-01-07T06:27:35.337Z,9.50
2023-01-07T06:30:04.285Z,9.50
2023-01-07T06:32:32.232Z,9.50
2023-01-07T06:35:00.160Z,9.50
2023-01-07T06:37:28.044Z,9.50
2023-01-07T06:39:55.873Z,9.50
2023-01-07T06:42:23.703Z,9.50
2023-01-07T06:44:52.934Z,9.50
2023-01-07T06:47:20.848Z,9.50
2023-01-07T06:49:48.756Z,9.50
2023-01-07T06:52:16.652Z,9.60
2023-01-07T06:54:45.567Z,9.60
2023-01-07T06:57:14.960Z,9.60
2023-01-07T06:59:42.816Z,9.60
2023-01-07T07:02:19.425Z,9.70
2023-01-07T07:04:47.495Z,9.60
2023-01-07T07:07:15.443Z,9.60
2023-01-07T07:09:43.472Z,9.60
2023-01-07T07:12:11.861Z,9.70
2023-01-07T07:14:39.869Z,9.60
2023-01-07T07:17:07.983Z,9.70
2023-01-07T07:19:37.245Z,9.70
2023-01-07T07:22:05.184Z,9.70
2023-01-07T07:24:33.244Z,9.80
2023-01-07T07:27:01.298Z,9.70
2023-01-07T07:29:29.145Z,9.80
2023-01-07T07:31:57.101Z,9.70
2023-01-07T07:34:25.107Z,9.70
2023-01-07T07:36:54.358Z,9.80
2023-01-07T07:39:22.274Z,9.70
2023-01-07T07:41:50.147Z,9.70
2023-01-07T07:44:18.028Z,9.70
2023-01-07T07:46:46.006Z,9.70
2023-01-07T07:49:14.183Z,9.70
2023-01-07T07:51:42.082Z,9.60
2023-01-07T07:54:11.373Z,9.60
2023-01-07T07:56:39.237Z,9.60
2023-01-07T07:59:07.148Z,9.60
2023-01-07T08:01:37.216Z,9.50
2023-01-07T08:04:05.409Z,9.60
2023-01-07T08:06:34.323Z,9.50
2023-01-07T08:09:02.493Z,9.70
2023-01-07T08:11:31.734Z,9.60
2023-01-07T08:13:59.616Z,9.60
2023-01-07T08:16:27.572Z,9.50
2023-01-07T08:18:55.517Z,9.60
2023-01-07T08:21:23.328Z,9.60
2023-01-07T08:23:51.206Z,9.60
2023-01-07T08:26:19.119Z,9.60
2023-01-07T08:28:48.372Z,9.60
2023-01-07T08:31:16.425Z,9.60
2023-01-07T08:33:44.440Z,9.60
2023-01-07T08:36:22.478Z,9.60
2023-01-07T08:38:52.662Z,9.80
2023-01-07T08:41:21.318Z,9.70
2023-01-07T08:43:51.103Z,9.70
2023-01-07T08:46:18.997Z,9.70
2023-01-07T08:48:46.964Z,9.70
2023-01-07T08:51:14.999Z,9.70
2023-01-07T08:53:42.880Z,9.70
2023-01-07T08:56:10.731Z,9.70
2023-01-07T08:58:39.263Z,9.70
2023-01-07T09:01:09.014Z,9.80
2023-01-07T09:03:36.976Z,9.80
2023-01-07T09:06:05.033Z,9.80
2023-01-07T09:08:32.972Z,9.90
2023-01-07T09:11:00.814Z,9.90
2023-01-07T09:13:28.951Z,9.90
2023-01-07T09:15:57.243Z,10.00
2023-01-07T09:18:26.829Z,10.10
2023-01-07T09:20:54.847Z,10.10
2023-01-07T09:23:22.785Z,10.10
2023-01-07T09:25:50.634Z,10.10
2023-01-07T09:28:18.572Z,10.20
2023-01-07T09:30:46.457Z,10.20
2023-01-07T09:33:14.351Z,10.20
2023-01-07T09:35:44.006Z,10.20
2023-01-07T09:38:11.981Z,10.20
2023-01-07T09:40:42.251Z,10.40
2023-01-07T09:43:15.970Z,10.50
2023-01-07T09:45:47.498Z,10.40
2023-01-07T09:48:22.162Z,10.40
2023-01-07T09:50:56.704Z,10.40
2023-01-07T09:53:31.496Z,10.40
2023-01-07T09:56:11.224Z,10.40
2023-01-07T09:58:43.827Z,10.40
2023-01-07T10:01:24.349Z,10.50
2023-01-07T10:04:03.636Z,10.40
2023-01-07T10:06:47.145Z,10.40
2023-01-07T10:09:28.118Z,10.40
2023-01-07T10:12:03.080Z,10.40
2023-01-07T10:15:09.109Z,10.40
2023-01-07T10:17:48.357Z,10.40
2023-01-07T10:20:22.043Z,10.40
2023-01-07T10:22:55.148Z,10.40
2023-01-07T10:25:26.420Z,10.40
2023-01-07T10:27:55.954Z,10.50
2023-01-07T10:30:26.900Z,10.60
2023-01-07T10:33:03.779Z,10.60
2023-01-07T10:35:36.980Z,10.70
2023-01-07T10:38:07.454Z,10.80
2023-01-07T10:40:41.937Z,10.80
2023-01-07T10:43:30.772Z,10.90
2023-01-07T10:46:19.912Z,11.00
2023-01-07T10:49:08.447Z,11.10
2023-01-07T10:51:56.061Z,11.30
2023-01-07T10:55:02.591Z,11.30
2023-01-07T10:57:40.481Z,11.40
2023-01-07T11:00:40.661Z,11.50
2023-01-07T11:03:28.321Z,11.50
2023-01-07T11:09:40.609Z,11.50
2023-01-07T11:12:29.869Z,11.60
2023-01-07T11:15:20.118Z,11.60
2023-01-07T11:17:55.101Z,11.60
2023-01-07T11:21:43.894Z,11.70
2023-01-07T11:24:49.475Z,11.70
2023-01-07T11:27:48.405Z,11.70
2023-01-07T11:30:27.102Z,11.70
2023-01-07T11:33:00.244Z,11.70
2023-01-07T11:35:29.147Z,11.80
2023-01-07T11:37:58.378Z,11.60
2023-01-07T11:40:28.618Z,11.40
2023-01-07T11:42:58.192Z,11.30
2023-01-07T11:45:30.022Z,11.40
2023-01-07T11:48:02.470Z,11.40
2023-01-07T11:50:36.013Z,11.50
2023-01-07T11:53:21.008Z,11.60
2023-01-07T11:55:58.593Z,11.50
2023-01-07T11:58:30.632Z,11.50
2023-01-07T12:01:15.884Z,11.60
2023-01-07T12:03:46.167Z,11.80
2023-01-07T12:06:21.659Z,11.90
2023-01-07T12:08:55.776Z,12.00
2023-01-07T12:11:33.476Z,12.20
2023-01-07T12:14:08.628Z,12.50
2023-01-07T12:16:38.615Z,13.00
2023-01-07T12:19:20.721Z,12.90
2023-01-07T12:21:59.180Z,12.50
2023-01-07T12:24:54.133Z,12.40
2023-01-07T12:27:45.919Z,12.30
2023-01-07T12:30:44.197Z,12.20
2023-01-07T12:33:26.267Z,12.00
2023-01-07T12:35:58.892Z,11.90
2023-01-07T12:38:39.682Z,11.90
2023-01-07T12:41:19.654Z,11.80
2023-01-07T12:43:58.185Z,11.80
2023-01-07T12:46:32.831Z,11.90
2023-01-07T12:49:06.658Z,11.90
2023-01-07T12:51:40.496Z,11.80
2023-01-07T12:54:17.018Z,11.70
2023-01-07T12:56:52.455Z,11.70
2023-01-07T12:59:47.055Z,11.60
2023-01-07T13:02:21.039Z,11.50
2023-01-07T13:05:01.684Z,11.40
2023-01-07T13:07:38.719Z,11.50
2023-01-07T13:10:13.419Z,11.50
2023-01-07T13:12:46.276Z,11.60
2023-01-07T13:15:22.088Z,11.60
2023-01-07T13:18:24.934Z,11.50
2023-01-07T13:21:06.388Z,11.40
2023-01-07T13:23:52.298Z,11.50
2023-01-07T13:26:31.880Z,11.60
2023-01-07T13:29:20.065Z,11.60
2023-01-07T13:32:18.426Z,11.50
2023-01-07T13:34:58.887Z,11.40
2023-01-07T13:37:46.898Z,11.40
2023-01-07T13:40:37.965Z,11.40
2023-01-07T13:43:16.337Z,11.50
2023-01-07T13:45:50.213Z,11.60
2023-01-07T13:48:26.350Z,11.50
2023-01-07T13:50:59.807Z,11.40
2023-01-07T13:53:46.263Z,11.30
2023-01-07T13:56:39.447Z,11.20
2023-01-07T13:59:32.104Z,11.10
2023-01-07T14:02:18.856Z,11.20
2023-01-07T14:04:52.234Z,11.20
2023-01-07T14:07:20.994Z,11.10
2023-01-07T14:09:50.506Z,11.10
2023-01-07T14:12:51.493Z,11.00
2023-01-07T14:16:02.027Z,11.00
2023-01-07T14:18:55.709Z,11.00
2023-01-07T14:22:03.396Z,10.90
2023-01-07T14:24:50.013Z,10.90
2023-01-07T14:27:36.199Z,10.80
2023-01-07T14:30:17.042Z,10.80
2023-01-07T14:32:45.801Z,10.80
2023-01-07T14:35:27.054Z,10.90
2023-01-07T14:37:55.176Z,10.90
2023-01-07T14:40:59.840Z,10.90
2023-01-07T14:44:09.913Z,10.90
2023-01-07T14:46:47.981Z,10.70
2023-01-07T14:49:49.525Z,10.70
2023-01-07T14:52:50.156Z,10.70
2023-01-07T14:55:35.269Z,10.70
2023-01-07T14:58:23.523Z,10.70
2023-01-07T15:01:31.447Z,10.70
2023-01-07T15:04:59.045Z,10.70
2023-01-07T15:07:35.256Z,10.60
2023-01-07T15:10:30.497Z,10.50
2023-01-07T15:13:18.730Z,10.50
2023-01-07T15:16:02.075Z,10.40
2023-01-07T15:18:30.989Z,10.40
2023-01-07T15:21:12.683Z,10.30
2023-01-07T15:23:47.993Z,10.30
2023-01-07T15:26:22.159Z,10.20
2023-01-07T15:28:56.600Z,10.20
2023-01-07T15:31:30.101Z,10.00
2023-01-07T15:34:08.393Z,10.00
2023-01-07T15:36:41.531Z,9.90
2023-01-07T15:39:18.229Z,9.90
2023-01-07T15:41:46.947Z,9.80
2023-01-07T15:44:28.991Z,9.80
2023-01-07T15:46:57.321Z,9.70
2023-01-07T15:49:25.900Z,9.60
2023-01-07T15:51:57.214Z,9.60
2023-01-07T15:54:35.851Z,9.60
2023-01-07T15:57:09.989Z,9.60
2023-01-07T15:59:44.658Z,9.50
2023-01-07T16:02:23.371Z,9.60
2023-01-07T16:04:59.355Z,9.50
2023-01-07T16:07:30.747Z,9.50
2023-01-07T16:10:20.687Z,9.40
2023-01-07T16:12:50.948Z,9.40
2023-01-07T16:15:24.026Z,9.30
2023-01-07T16:17:58.878Z,9.20
2023-01-07T16:20:32.321Z,9.10
2023-01-07T16:23:17.893Z,9.10
2023-01-07T16:25:48.433Z,9.10
2023-01-07T16:28:21.077Z,9.00
2023-01-07T16:30:54.355Z,9.00
2023-01-07T16:33:25.437Z,9.00
2023-01-07T16:36:01.403Z,9.10
2023-01-07T16:38:34.162Z,9.00
2023-01-07T16:41:23.778Z,8.90
2023-01-07T16:43:58.575Z,8.90
2023-01-07T16:46:28.355Z,8.90
2023-01-07T16:49:27.571Z,8.90
2023-01-07T16:52:05.531Z,8.80
2023-01-07T16:54:37.443Z,8.80
2023-01-07T16:57:07.881Z,8.80
2023-01-07T16:59:39.141Z,8.70
2023-01-07T17:02:18.917Z,8.70
2023-01-07T17:04:48.320Z,8.60
2023-01-07T17:07:22.897Z,8.70
2023-01-07T17:09:54.847Z,8.60
2023-01-07T17:12:30.984Z,8.60
2023-01-07T17:14:59.168Z,8.60
2023-01-07T17:17:34.819Z,8.50
2023-01-07T17:20:17.441Z,8.50
2023-01-07T17:22:45.863Z,8.50
2023-01-07T17:25:17.284Z,8.50
2023-01-07T17:27:49.787Z,8.40
2023-01-07T17:30:20.250Z,8.40
2023-01-07T17:32:49.963Z,8.30
2023-01-07T17:35:20.552Z,8.30
2023-01-07T17:37:48.694Z,8.20
2023-01-07T17:40:19.085Z,8.20
2023-01-07T17:43:07.957Z,8.20
2023-01-07T17:45:36.105Z,8.20
2023-01-07T17:48:11.206Z,8.10
2023-01-07T17:50:39.238Z,8.10
2023-01-07T17:53:07.297Z,8.20
2023-01-07T17:55:37.377Z,8.10
2023-01-07T17:58:05.809Z,8.10
2023-01-07T18:00:36.685Z,8.00
2023-01-07T18:03:06.843Z,8.00
2023-01-07T18:05:34.910Z,8.00
2023-01-07T18:08:03.137Z,8.00
2023-01-07T18:10:51.963Z,7.90
2023-01-07T18:13:20.353Z,7.90
2023-01-07T18:15:48.343Z,7.90
2023-01-07T18:18:16.260Z,7.90
2023-01-07T18:20:44.187Z,7.80
2023-01-07T18:23:15.748Z,7.80
2023-01-07T18:25:46.406Z,7.70
2023-01-07T18:28:14.868Z,7.70
2023-01-07T18:30:44.540Z,7.60
2023-01-07T18:33:13.016Z,7.60
2023-01-07T18:35:41.522Z,7.60
2023-01-07T18:38:14.191Z,7.50
2023-01-07T18:40:42.918Z,7.50
2023-01-07T18:43:14.433Z,7.50
2023-01-07T18:45:44.502Z,7.50
2023-01-07T18:48:13.661Z,7.40
2023-01-07T18:50:42.624Z,7.40
2023-01-07T18:53:10.697Z,7.40
2023-01-07T18:55:39.696Z,7.30
2023-01-07T18:58:08.011Z,7.30
2023-01-07T19:00:36.887Z,7.30
2023-01-07T19:03:06.180Z,7.20
2023-01-07T19:05:34.115Z,7.20
2023-01-07T19:08:02.164Z,7.10
2023-01-07T19:10:30.042Z,7.10
2023-01-07T19:12:58.117Z,7.10
2023-01-07T19:15:26.023Z,7.00
2023-01-07T19:17:53.955Z,7.00
2023-01-07T19:20:23.276Z,6.90
2023-01-07T19:22:51.207Z,6.90
2023-01-07T19:25:19.154Z,6.90
2023-01-07T19:27:47.089Z,6.90
2023-01-07T19:30:15.317Z,6.80
2023-01-07T19:32:43.241Z,6.90
2023-01-07T19:35:11.273Z,6.90
2023-01-07T19:37:40.690Z,6.80
2023-01-07T19:40:09.449Z,6.80
2023-01-07T19:42:37.364Z,6.80
2023-01-07T19:45:06.605Z,6.70
2023-01-07T19:47:35.415Z,6.70
2023-01-07T19:50:03.526Z,6.80
2023-01-07T19:52:31.479Z,6.70
2023-01-07T19:55:00.765Z,6.70
2023-01-07T19:57:29.021Z,6.80
2023-01-07T19:59:56.954Z,6.70
2023-01-07T20:02:25.092Z,6.70
2023-01-07T20:04:53.223Z,6.70
2023-01-07T20:07:21.193Z,6.60
2023-01-07T20:09:49.163Z,6.60
2023-01-07T20:12:19.624Z,6.70
2023-01-07T20:14:47.728Z,6.60
2023-01-07T20:17:15.836Z,6.60
2023-01-07T20:19:44.774Z,6.60
2023-01-07T20:22:12.900Z,6.50
2023-01-07T20:24:40.876Z,6.50
2023-01-07T20:27:08.889Z,6.50
2023-01-07T20:29:38.721Z,6.50
2023-01-07T20:32:08.281Z,6.40
2023-01-07T20:34:36.295Z,6.40
2023-01-07T20:37:04.382Z,6.40
2023-01-07T20:39:32.289Z,6.40
2023-01-07T20:42:00.263Z,6.30
2023-01-07T20:44:28.255Z,6.30
2023-01-07T20:46:57.562Z,6.30
2023-01-07T20:49:25.412Z,6.20
2023-01-07T20:51:53.247Z,6.20
2023-01-07T20:54:21.180Z,6.20
2023-01-07T20:56:49.089Z,6.20
2023-01-07T20:59:17.334Z,6.20
2023-01-07T21:01:45.411Z,6.20
2023-01-07T21:04:14.819Z,6.20
2023-01-07T21:06:42.722Z,6.20
2023-01-07T21:09:11.683Z,6.20
2023-01-07T21:11:40.664Z,6.10
2023-01-07T21:14:08.519Z,6.10
2023-01-07T21:16:36.579Z,6.10
2023-01-07T21:19:05.175Z,6.10
2023-01-07T21:21:34.458Z,6.10
2023-01-07T21:24:02.438Z,6.00
2023-01-07T21:26:30.444Z,6.10
2023-01-07T21:28:59.063Z,6.00
2023-01-07T21:31:27.797Z,6.00
2023-01-07T21:33:57.186Z,6.00
2023-01-07T21:36:26.523Z,6.00
2023-01-07T21:38:59.188Z,5.90
2023-01-07T21:41:28.552Z,6.10
2023-01-07T21:43:56.884Z,5.90
2023-01-07T21:46:24.880Z,5.90
2023-01-07T21:48:52.963Z,5.80
2023-01-07T21:51:22.441Z,5.80
2023-01-07T21:53:52.081Z,5.80
2023-01-07T21:56:21.325Z,5.80
2023-01-07T21:58:49.847Z,5.80
2023-01-07T22:01:18.591Z,5.80
2023-01-07T22:03:48.903Z,5.80
2023-01-07T22:06:19.933Z,5.80
2023-01-07T22:08:48.343Z,5.70
2023-01-07T22:11:17.920Z,5.70
2023-01-07T22:13:50.553Z,5.70
2023-01-07T22:16:18.807Z,5.70
2023-01-07T22:18:46.834Z,5.70
2023-01-07T22:21:14.886Z,5.70
2023-01-07T22:23:44.866Z,5.70
2023-01-07T22:26:13.320Z,5.60
2023-01-07T22:28:42.323Z,5.60
2023-01-07T22:31:16.195Z,5.60
2023-01-07T22:33:44.067Z,5.60
2023-01-07T22:36:15.736Z,5.60
2023-01-07T22:38:43.694Z,5.60
2023-01-07T22:41:12.919Z,5.60
2023-01-07T22:43:40.964Z,5.60
2023-01-07T22:46:13.430Z,5.60
2023-01-07T22:48:41.374Z,5.60
2023-01-07T22:51:14.615Z,5.60
2023-01-07T22:53:44.701Z,5.60
2023-01-07T22:56:14.443Z,5.60
2023-01-07T22:58:42.405Z,5.60
2023-01-07T23:01:14.609Z,5.60
2023-01-07T23:03:43.312Z,5.50
2023-01-07T23:06:13.057Z,5.50
2023-01-07T23:08:41.540Z,5.50
2023-01-07T23:11:10.641Z,5.50
2023-01-07T23:13:38.708Z,5.50
2023-01-07T23:16:07.870Z,5.50
2023-01-07T23:18:40.308Z,5.50
2023-01-07T23:21:08.203Z,5.50
2023-01-07T23:23:36.145Z,5.60
2023-01-07T23:26:04.221Z,5.60
2023-01-07T23:28:32.102Z,5.50
2023-01-07T23:31:02.074Z,5.60
2023-01-07T23:33:29.935Z,5.60
2023-01-07T23:36:03.966Z,5.60
2023-01-07T23:38:32.640Z,5.50
2023-01-07T23:41:01.475Z,5.50
2023-01-07T23:43:29.436Z,5.50
2023-01-07T23:45:58.304Z,5.50
2023-01-07T23:48:27.135Z,5.50
2023-01-07T23:50:55.429Z,5.50
2023-01-07T23:53:25.923Z,5.40
2023-01-07T23:55:54.125Z,5.40
2023-01-07T23:58:22.381Z,5.40
